Time;durP1;ratioP1;P1;durP2;ratioP2;P2;SDS_P1;SDS_P2;PMS_P1;PMS_P2;Temp;Humidity;BMP_temperature;BMP_pressure;BME280_temperature;BME280_humidity;BME280_pressure;Samples;Min_cycle;Max_cycle;Signal;HPM_P1;HPM_P2
2021/05/18 00:02:02;;;;;;;0.20;0.20;;;23.40;45.90;;;;;;5046620;28;20045;-62
2021/05/18 00:04:29;;;;;;;0.35;0.10;;;23.40;45.90;;;;;;5046027;28;20052;-62
2021/05/18 00:06:56;;;;;;;0.38;0.38;;;23.40;45.90;;;;;;5045888;28;20289;-62
2021/05/18 00:12:10;;;;;;;0.20;0.20;;;23.50;46.00;;;;;;5046074;28;20048;-62
2021/05/18 00:14:38;;;;;;;0.20;0.20;;;23.40;46.00;;;;;;5045797;28;20078;-62
2021/05/18 00:17:05;;;;;;;0.47;0.35;;;23.40;45.90;;;;;;5046376;28;20092;-62
2021/05/18 00:19:32;;;;;;;0.28;0.15;;;23.40;45.90;;;;;;5060860;28;20049;-62
2021/05/18 00:21:59;;;;;;;0.20;0.20;;;23.40;45.90;;;;;;5046356;28;20140;-62
2021/05/18 00:24:26;;;;;;;0.20;0.20;;;23.40;45.90;;;;;;5045415;28;20095;-62
2021/05/18 00:26:54;;;;;;;0.20;0.20;;;23.40;45.90;;;;;;5046493;28;20080;-63
2021/05/18 00:29:21;;;;;;;0.15;0.15;;;23.40;45.90;;;;;;5045793;28;20048;-63
2021/05/18 00:31:48;;;;;;;0.45;0.45;;;23.40;45.90;;;;;;5045570;28;20593;-62
2021/05/18 00:34:15;;;;;;;0.75;0.35;;;23.40;45.90;;;;;;5045258;28;20297;-62
2021/05/18 00:36:43;;;;;;;0.20;0.20;;;23.40;45.90;;;;;;5044035;28;20053;-62
2021/05/18 00:39:10;;;;;;;0.20;0.20;;;23.40;45.90;;;;;;5040046;28;20528;-62
2021/05/18 00:41:37;;;;;;;0.20;0.20;;;23.40;45.90;;;;;;5037159;28;20506;-63
2021/05/18 00:44:04;;;;;;;0.22;0.20;;;23.40;45.90;;;;;;5039913;28;20041;-62
2021/05/18 00:46:31;;;;;;;0.30;0.30;;;23.40;45.90;;;;;;5037599;28;20048;-62
2021/05/18 00:48:58;;;;;;;0.10;0.10;;;23.40;45.90;;;;;;5039469;28;20037;-62
2021/05/18 00:51:27;;;;;;;0.20;0.20;;;23.40;46.00;;;;;;5039519;28;20049;-63
2021/05/18 00:53:57;;;;;;;0.20;0.20;;;23.40;46.00;;;;;;5041593;28;20099;-62
2021/05/18 00:58:25;;;;;;;0.30;0.28;;;23.30;45.90;;;;;;5040365;28;20524;-62
2021/05/18 00:59:12;;;;;;;0.30;0.30;;;23.40;46.00;;;;;;5041812;28;20049;-62
2021/05/18 01:01:39;;;;;;;0.50;0.20;;;23.30;45.90;;;;;;5040066;28;20125;-62
2021/05/18 01:04:12;;;;;;;0.30;0.28;;;23.40;45.90;;;;;;5042031;28;20065;-62
2021/05/18 01:06:41;;;;;;;0.20;0.17;;;23.40;45.90;;;;;;5039517;28;20079;-62
2021/05/18 01:09:13;;;;;;;0.25;0.20;;;23.30;45.90;;;;;;5042368;28;20128;-62
2021/05/18 01:11:45;;;;;;;0.25;0.25;;;23.40;45.90;;;;;;5038549;28;20360;-62
2021/05/18 01:14:17;;;;;;;0.17;0.13;;;23.40;45.90;;;;;;5041147;28;20059;-62
2021/05/18 01:16:47;;;;;;;0.73;0.13;;;23.30;45.80;;;;;;5041416;28;20056;-62
2021/05/18 01:19:18;;;;;;;0.30;0.30;;;23.30;45.90;;;;;;5040437;28;20055;-62
2021/05/18 01:21:45;;;;;;;0.50;0.50;;;23.30;45.90;;;;;;5042064;28;20080;-62
2021/05/18 01:24:15;;;;;;;0.25;0.25;;;23.30;45.90;;;;;;5039624;28;20041;-62
2021/05/18 01:26:43;;;;;;;;;;;23.30;45.90;;;;;;5040432;28;20297;-62
2021/05/18 01:29:10;;;;;;;0.60;0.20;;;23.30;45.90;;;;;;5040503;28;19921;-62
2021/05/18 01:31:39;;;;;;;0.15;0.13;;;23.30;45.90;;;;;;5041323;28;20156;-62
2021/05/18 01:34:06;;;;;;;0.70;0.40;;;23.30;45.90;;;;;;5039299;28;20146;-62
2021/05/18 01:36:35;;;;;;;1.60;0.28;;;23.30;45.90;;;;;;5042980;28;20095;-63
2021/05/18 01:39:43;;;;;;;0.25;0.25;;;23.30;45.90;;;;;;5040955;28;20122;-62
2021/05/18 01:44:39;;;;;;;0.30;0.30;;;23.30;45.90;;;;;;5039794;28;20068;-62
2021/05/18 01:47:08;;;;;;;0.20;0.20;;;23.30;45.90;;;;;;5039305;28;20136;-62
2021/05/18 01:49:35;;;;;;;0.10;0.10;;;23.30;45.90;;;;;;5039455;28;20075;-63
2021/05/18 01:52:04;;;;;;;0.30;0.30;;;23.30;45.90;;;;;;5042851;28;20077;-63
2021/05/18 01:54:33;;;;;;;0.30;0.30;;;23.30;45.90;;;;;;5044782;28;20128;-64
2021/05/18 01:57:20;;;;;;;0.40;0.40;;;23.30;45.80;;;;;;5044890;28;20052;-62
2021/05/18 01:59:51;;;;;;;0.20;0.17;;;23.30;45.80;;;;;;5044883;28;20122;-62
2021/05/18 02:02:19;;;;;;;0.20;0.20;;;23.30;45.80;;;;;;5044168;28;20340;-62
2021/05/18 02:04:56;;;;;;;0.40;0.40;;;23.30;45.80;;;;;;5043558;28;20057;-62
2021/05/18 02:07:29;;;;;;;0.10;0.10;;;23.30;45.80;;;;;;5046028;28;20065;-62
2021/05/18 02:09:57;;;;;;;0.40;0.30;;;23.30;45.80;;;;;;5041069;28;20494;-62
2021/05/18 02:12:24;;;;;;;0.20;0.20;;;23.30;45.80;;;;;;5044357;28;20453;-62
2021/05/18 02:14:58;;;;;;;0.40;0.40;;;23.20;45.70;;;;;;5047717;28;20081;-62
2021/05/18 02:17:32;;;;;;;0.30;0.30;;;23.30;45.80;;;;;;5047735;28;20076;-62
2021/05/18 02:20:19;;;;;;;0.38;0.38;;;23.20;45.80;;;;;;5048209;28;20048;-62
2021/05/18 02:25:33;;;;;;;0.25;0.20;;;23.20;45.80;;;;;;5046995;28;20041;-62
2021/05/18 02:28:02;;;;;;;0.20;0.20;;;23.20;45.80;;;;;;5047882;28;20152;-62
2021/05/18 02:30:29;;;;;;;0.30;0.30;;;23.20;45.80;;;;;;5047685;28;20037;-62
2021/05/18 02:32:56;;;;;;;0.10;0.10;;;23.20;45.80;;;;;;5047599;28;20110;-62
2021/05/18 02:35:23;;;;;;;0.30;0.30;;;23.20;45.80;;;;;;5047483;28;20540;-62
2021/05/18 02:37:51;;;;;;;0.85;0.40;;;23.20;45.80;;;;;;5048341;28;20456;-62
2021/05/18 02:40:22;;;;;;;0.50;0.38;;;23.30;45.80;;;;;;5047848;28;20104;-62
2021/05/18 02:42:50;;;;;;;0.40;0.40;;;23.20;45.70;;;;;;5047916;28;20080;-62
2021/05/18 02:45:36;;;;;;;0.20;0.20;;;23.20;45.70;;;;;;5063109;28;20041;-62
2021/05/18 02:50:50;;;;;;;0.70;0.40;;;23.20;45.70;;;;;;5047722;28;20045;-62
2021/05/18 02:53:17;;;;;;;0.28;0.28;;;23.20;45.80;;;;;;5047496;28;20560;-62
2021/05/18 02:55:58;;;;;;;2.50;0.50;;;23.20;45.70;;;;;;5047777;28;20474;-63
2021/05/18 02:58:26;;;;;;;0.40;0.40;;;23.20;45.70;;;;;;5047935;28;20045;-62
2021/05/18 03:00:53;;;;;;;0.20;0.20;;;23.20;45.70;;;;;;5047457;28;20077;-62
2021/05/18 03:03:20;;;;;;;0.45;0.38;;;23.20;45.70;;;;;;5047032;28;20136;-62
2021/05/18 03:05:48;;;;;;;0.10;0.10;;;23.20;45.70;;;;;;5047818;28;20157;-62
2021/05/18 03:08:15;;;;;;;0.20;0.20;;;23.20;45.70;;;;;;5042786;28;20208;-62
2021/05/18 03:10:42;;;;;;;0.20;0.20;;;23.20;45.70;;;;;;5027243;28;20068;-62
2021/05/18 03:13:09;;;;;;;0.30;0.30;;;23.20;45.70;;;;;;5026980;28;20140;-62
2021/05/18 03:15:36;;;;;;;0.47;0.28;;;23.20;45.70;;;;;;5027647;28;20167;-62
2021/05/18 03:18:04;;;;;;;0.30;0.30;;;23.20;45.70;;;;;;5027099;28;20092;-62
2021/05/18 03:20:31;;;;;;;0.47;0.25;;;23.20;45.70;;;;;;5027485;28;20268;-62
2021/05/18 03:22:59;;;;;;;0.20;0.20;;;23.20;45.70;;;;;;5026596;28;20072;-61
2021/05/18 03:25:26;;;;;;;0.25;0.25;;;23.20;45.70;;;;;;5027755;28;20053;-62
2021/05/18 03:27:57;;;;;;;0.10;0.10;;;23.20;45.70;;;;;;5027563;28;20088;-62
2021/05/18 03:30:47;;;;;;;0.30;0.30;;;23.20;45.70;;;;;;5025554;28;20264;-62
2021/05/18 03:35:58;;;;;;;0.30;0.30;;;23.20;45.60;;;;;;5027441;28;20172;-62
2021/05/18 03:38:34;;;;;;;0.75;0.52;;;23.20;46.20;;;;;;5027070;28;20045;-62
2021/05/18 03:41:09;;;;;;;0.45;0.30;;;23.20;45.60;;;;;;5026940;28;20513;-62
2021/05/18 03:43:46;;;;;;;0.45;0.30;;;23.20;45.50;;;;;;5025950;28;20073;-62
2021/05/18 03:54:52;;;;;;;0.13;0.13;;;23.20;45.50;;;;;;5025868;28;20077;-62
2021/05/18 04:03:03;;;;;;;0.25;0.20;;;23.30;45.50;;;;;;5026550;28;20510;-61
2021/05/18 04:11:45;;;;;;;0.10;0.10;;;23.30;45.40;;;;;;5046642;28;20049;-63
2021/05/18 04:19:34;;;;;;;2.40;0.35;;;23.30;45.30;;;;;;5046078;28;20045;-62
2021/05/18 04:22:17;;;;;;;0.35;0.30;;;23.30;45.20;;;;;;5046313;28;20041;-62
2021/05/18 04:25:13;;;;;;;;;;;23.40;45.20;;;;;;5046489;28;20448;-61
2021/05/18 04:41:47;;;;;;;0.15;0.15;;;23.50;44.80;;;;;;5024423;28;20132;-63
2021/05/18 04:50:23;;;;;;;0.30;0.30;;;23.60;44.60;;;;;;5030046;28;20529;-62
2021/05/18 04:52:50;;;;;;;0.40;0.30;;;23.60;44.60;;;;;;5043706;28;20075;-63
2021/05/18 05:00:54;;;;;;;0.90;0.40;;;23.70;44.50;;;;;;5028912;28;20134;-62
2021/05/18 05:03:48;;;;;;;1.95;0.30;;;23.70;44.30;;;;;;5028090;28;20136;-62
2021/05/18 05:09:21;;;;;;;0.30;0.30;;;23.80;44.30;;;;;;5034785;28;20532;-63
2021/05/18 05:14:30;;;;;;;0.28;0.20;;;23.60;44.40;;;;;;5028036;28;20542;-62
2021/05/18 05:16:57;;;;;;;2.75;0.40;;;23.60;44.80;;;;;;5032067;28;20045;-62
2021/05/18 05:19:29;;;;;;;0.32;0.30;;;23.50;44.90;;;;;;5033055;28;20163;-62
2021/05/18 05:21:57;;;;;;;0.35;0.35;;;23.50;45.10;;;;;;5033243;28;20606;-63
2021/05/18 05:24:25;;;;;;;0.43;0.20;;;23.50;45.10;;;;;;5032728;28;20044;-62
2021/05/18 05:26:52;;;;;;;0.50;0.35;;;23.50;45.00;;;;;;5033534;28;20143;-65
2021/05/18 05:29:20;;;;;;;1.58;0.35;;;23.60;45.00;;;;;;5030673;28;20049;-65
2021/05/18 05:31:49;;;;;;;0.30;0.30;;;23.60;44.90;;;;;;5028771;28;20080;-63
2021/05/18 05:34:18;;;;;;;0.30;0.30;;;23.60;44.70;;;;;;5034403;28;20045;-62
2021/05/18 05:36:46;;;;;;;0.20;0.20;;;23.70;44.60;;;;;;5031397;28;20049;-64
2021/05/18 05:39:25;;;;;;;0.38;0.17;;;23.70;44.50;;;;;;5029295;28;20057;-62
2021/05/18 05:41:56;;;;;;;1.88;0.30;;;23.70;44.40;;;;;;5030122;28;20100;-63
2021/05/18 05:44:24;;;;;;;2.38;0.47;;;23.70;44.30;;;;;;5023749;28;20048;-64
2021/05/18 05:46:52;;;;;;;0.30;0.30;;;23.80;44.10;;;;;;5026362;28;20053;-64
2021/05/18 05:49:19;;;;;;;0.47;0.47;;;23.80;43.90;;;;;;5028469;28;20148;-64
2021/05/18 05:51:46;;;;;;;0.45;0.40;;;23.90;43.80;;;;;;4999689;28;778819;-65
2021/05/18 05:54:13;;;;;;;0.75;0.50;;;23.90;43.60;;;;;;5030756;28;20518;-66
2021/05/18 05:56:41;;;;;;;0.63;0.50;;;23.90;43.30;;;;;;5047889;28;20499;-66
2021/05/18 05:59:09;;;;;;;2.60;0.60;;;23.90;42.90;;;;;;5029818;28;20488;-65
2021/05/18 06:01:36;;;;;;;0.95;0.50;;;24.00;42.60;;;;;;5026851;28;20046;-66
2021/05/18 06:04:04;;;;;;;3.00;0.80;;;24.00;42.40;;;;;;5029068;28;20145;-64
2021/05/18 06:06:32;;;;;;;4.05;0.60;;;24.00;42.10;;;;;;5029525;28;20049;-65
2021/05/18 06:08:59;;;;;;;2.92;0.50;;;24.00;42.00;;;;;;5029540;28;20056;-64
2021/05/18 06:14:34;;;;;;;3.15;0.52;;;24.10;41.50;;;;;;5027871;28;20119;-63
2021/05/18 06:42:16;;;;;;;1.30;0.45;;;24.30;40.10;;;;;;5031668;28;20073;-65
2021/05/18 06:47:35;;;;;;;1.08;0.32;;;24.30;39.90;;;;;;5025339;28;20156;-62
2021/05/18 06:50:29;;;;;;;1.65;0.30;;;24.30;39.90;;;;;;5032994;28;20045;-64
2021/05/18 06:52:57;;;;;;;1.00;0.40;;;24.30;39.70;;;;;;5035656;28;20067;-62
2021/05/18 06:55:31;;;;;;;0.93;0.60;;;24.30;39.50;;;;;;5035842;28;20053;-62
2021/05/18 06:58:08;;;;;;;0.35;0.22;;;24.40;39.50;;;;;;5033901;28;20049;-62
2021/05/18 07:00:42;;;;;;;2.47;0.47;;;24.40;39.40;;;;;;5037613;28;20045;-62
2021/05/18 07:03:16;;;;;;;0.15;0.13;;;24.40;39.30;;;;;;5034817;28;20084;-58
2021/05/18 07:05:53;;;;;;;2.92;0.22;;;24.40;39.10;;;;;;5034833;28;20077;-59
2021/05/18 07:08:54;;;;;;;2.75;0.10;;;24.40;39.10;;;;;;5033422;28;20118;-58
2021/05/18 07:11:07;;;;;;;3.08;0.52;;;24.40;39.00;;;;;;5033772;28;20067;-63
2021/05/18 07:13:35;;;;;;;0.98;0.35;;;24.40;39.20;;;;;;5034722;28;20077;-64
2021/05/18 07:16:03;;;;;;;5.47;1.05;;;24.40;39.20;;;;;;5039864;28;20421;-64
2021/05/18 07:18:30;;;;;;;0.22;0.22;;;24.50;39.40;;;;;;5035324;28;20106;-64
2021/05/18 07:20:58;;;;;;;0.20;0.20;;;24.50;39.20;;;;;;5034044;28;20102;-64
2021/05/18 07:23:26;;;;;;;0.10;0.10;;;24.50;39.30;;;;;;5033021;28;20049;-62
2021/05/18 07:25:54;;;;;;;0.10;0.10;;;24.50;37.60;;;;;;5033988;28;20108;-64
2021/05/18 07:28:22;;;;;;;2.67;0.10;;;24.40;35.60;;;;;;5030271;28;20053;-62
2021/05/18 07:30:49;;;;;;;0.45;0.43;;;24.40;36.40;;;;;;5031855;28;21067;-65
2021/05/18 07:33:17;;;;;;;0.30;0.20;;;24.30;36.80;;;;;;5032732;28;20105;-65
2021/05/18 07:35:45;;;;;;;2.38;0.10;;;24.30;37.30;;;;;;5031507;28;20143;-64
2021/05/18 07:38:13;;;;;;;0.10;0.10;;;24.40;37.70;;;;;;5031417;28;20092;-65
2021/05/18 07:40:42;;;;;;;0.20;0.10;;;24.40;38.00;;;;;;5031686;28;20093;-62
2021/05/18 07:43:13;;;;;;;0.30;0.22;;;24.40;38.00;;;;;;5027213;28;20410;-64
2021/05/18 07:45:40;;;;;;;0.10;0.10;;;24.40;38.10;;;;;;5034243;28;20118;-63
2021/05/18 07:48:30;;;;;;;0.47;0.32;;;24.50;38.30;;;;;;5037435;28;20037;-63
2021/05/18 07:59:34;;;;;;;0.10;0.10;;;24.60;38.70;;;;;;5034934;28;20588;-62
2021/05/18 08:02:28;;;;;;;1.17;0.20;;;24.60;38.70;;;;;;5033199;28;20481;-61
2021/05/18 08:07:40;;;;;;;0.10;0.10;;;24.60;38.20;;;;;;5032209;28;20067;-62
2021/05/18 08:10:13;;;;;;;0.43;0.03;;;24.60;37.80;;;;;;5036338;28;20061;-61
2021/05/18 08:12:41;;;;;;;2.10;0.22;;;24.70;37.30;;;;;;5031167;28;20156;-62
2021/05/18 08:15:35;;;;;;;0.30;0.10;;;24.70;37.00;;;;;;5034346;28;20575;-62
2021/05/18 08:18:17;;;;;;;0.10;0.10;;;24.70;36.80;;;;;;5033718;28;20099;-61
2021/05/18 08:20:57;;;;;;;0.60;0.10;;;24.70;36.90;;;;;;5036884;28;20534;-62
2021/05/18 08:53:01;;;;;;;0.47;0.00;;;24.80;34.60;;;;;;5036716;28;20665;-64
2021/05/18 09:29:58;;;;;;;4.78;0.35;;;25.20;36.80;;;;;;5028897;28;20049;-64
2021/05/18 09:49:54;;;;;;;0.22;0.00;;;25.50;36.70;;;;;;5036764;28;20045;-63
2021/05/18 10:34:57;;;;;;;0.75;0.00;;;25.80;36.10;;;;;;5034783;28;20137;-63
2021/05/18 10:37:45;;;;;;;0.60;0.10;;;25.80;36.00;;;;;;5031793;28;20132;-62
2021/05/18 10:40:28;;;;;;;0.40;0.10;;;25.70;36.00;;;;;;5032332;28;20075;-62
2021/05/18 10:43:28;;;;;;;0.47;0.10;;;25.70;36.00;;;;;;5029772;28;20084;-62
2021/05/18 10:46:09;;;;;;;0.22;0.13;;;25.70;36.00;;;;;;5029183;28;20099;-65
2021/05/18 10:49:06;;;;;;;0.10;0.00;;;25.70;36.00;;;;;;5032426;28;20072;-64
2021/05/18 10:51:54;;;;;;;1.25;0.10;;;25.70;36.00;;;;;;5041219;28;20061;-67
2021/05/18 10:54:34;;;;;;;0.10;0.10;;;25.70;36.00;;;;;;5027071;28;20084;-68
2021/05/18 10:57:11;;;;;;;0.15;0.00;;;25.70;36.00;;;;;;5025454;28;20441;-66
2021/05/18 10:59:48;;;;;;;0.38;0.10;;;25.70;36.00;;;;;;5050515;28;20053;-66
2021/05/18 11:02:29;;;;;;;0.50;0.10;;;25.70;36.10;;;;;;5031310;28;20053;-66
2021/05/18 11:05:11;;;;;;;2.53;0.25;;;25.70;36.00;;;;;;5031086;28;20053;-65
2021/05/18 11:07:43;;;;;;;0.20;0.10;;;25.70;36.00;;;;;;5030295;28;20485;-64
2021/05/18 11:10:14;;;;;;;1.58;0.10;;;25.70;35.70;;;;;;5030455;28;20060;-63
2021/05/18 11:12:51;;;;;;;0.77;0.13;;;25.70;35.40;;;;;;5030854;28;20063;-64
2021/05/18 11:15:21;;;;;;;1.00;0.38;;;25.80;35.20;;;;;;5035190;28;20053;-63
2021/05/18 11:17:50;;;;;;;1.20;0.00;;;25.80;35.20;;;;;;5031901;28;20068;-63
2021/05/18 11:20:46;;;;;;;3.23;0.30;;;25.80;35.10;;;;;;5034072;28;20068;-62
2021/05/18 11:23:22;;;;;;;2.70;0.13;;;25.80;35.00;;;;;;5030462;28;20306;-63
2021/05/18 11:25:58;;;;;;;1.55;0.00;;;25.80;34.90;;;;;;5031396;28;20037;-62
2021/05/18 11:28:33;;;;;;;3.40;0.30;;;25.80;34.70;;;;;;5029742;28;20080;-64
2021/05/18 11:31:19;;;;;;;0.95;0.40;;;25.90;34.70;;;;;;5028534;28;20491;-65
2021/05/18 11:33:52;;;;;;;0.03;0.00;;;25.90;34.80;;;;;;5031610;28;20057;-65
2021/05/18 11:36:28;;;;;;;1.27;0.10;;;26.00;34.80;;;;;;5030600;28;20525;-67
2021/05/18 11:39:13;;;;;;;3.22;0.20;;;26.00;34.80;;;;;;5030368;28;20129;-67
2021/05/18 11:41:45;;;;;;;2.92;0.15;;;26.00;34.70;;;;;;5028750;28;20483;-67
2021/05/18 11:44:13;;;;;;;0.65;0.28;;;26.00;34.70;;;;;;5028794;28;20194;-67
2021/05/18 11:46:49;;;;;;;3.45;0.30;;;26.00;34.60;;;;;;5030190;28;20685;-66
2021/05/18 11:49:19;;;;;;;1.60;0.10;;;26.10;34.70;;;;;;5029835;28;20049;-65
2021/05/18 11:51:52;;;;;;;1.10;0.05;;;26.00;34.70;;;;;;5030267;28;20041;-65
2021/05/18 11:54:31;;;;;;;1.65;0.10;;;26.00;34.80;;;;;;5033352;28;20056;-65
2021/05/18 11:56:59;;;;;;;1.25;0.10;;;26.00;35.00;;;;;;5027701;28;20041;-65
2021/05/18 11:59:27;;;;;;;1.08;0.17;;;25.90;35.00;;;;;;5031015;28;20052;-65
2021/05/18 12:02:03;;;;;;;0.00;0.00;;;25.90;34.90;;;;;;5029559;28;20498;-65
2021/05/18 12:04:36;;;;;;;0.57;0.20;;;25.90;35.00;;;;;;5029601;28;20057;-66
2021/05/18 12:07:10;;;;;;;0.75;0.00;;;25.90;35.00;;;;;;5030440;28;20108;-67
2021/05/18 12:09:43;;;;;;;0.25;0.10;;;25.90;35.00;;;;;;5029332;28;20529;-65
2021/05/18 12:12:15;;;;;;;0.47;0.08;;;25.90;35.00;;;;;;5026887;28;20099;-65
2021/05/18 12:14:49;;;;;;;1.95;0.13;;;25.90;34.90;;;;;;5034179;28;20053;-65
2021/05/18 12:17:33;;;;;;;0.08;0.08;;;25.90;34.80;;;;;;5033604;28;20045;-66
2021/05/18 12:20:13;;;;;;;1.35;0.10;;;26.00;34.70;;;;;;5034465;28;20102;-67
2021/05/18 12:22:42;;;;;;;0.65;0.20;;;26.00;34.80;;;;;;5028327;28;20846;-64
2021/05/18 12:25:11;;;;;;;0.30;0.10;;;26.00;34.80;;;;;;5029692;28;20049;-62
2021/05/18 12:27:46;;;;;;;0.47;0.05;;;26.00;34.80;;;;;;5030154;28;20049;-62
2021/05/18 12:30:13;;;;;;;2.58;0.10;;;26.00;34.80;;;;;;5028150;28;20065;-62
2021/05/18 12:32:50;;;;;;;0.10;0.10;;;26.00;34.80;;;;;;5024168;28;20128;-62
2021/05/18 12:35:21;;;;;;;2.42;0.30;;;26.00;34.80;;;;;;5028766;28;20118;-63
2021/05/18 12:37:51;;;;;;;3.28;0.00;;;26.00;34.80;;;;;;5029438;28;20045;-67
2021/05/18 12:40:31;;;;;;;0.63;0.00;;;26.00;34.80;;;;;;5031349;28;20049;-64
2021/05/18 12:43:12;;;;;;;0.95;0.10;;;26.00;34.90;;;;;;5033438;28;20051;-68
2021/05/18 12:45:41;;;;;;;0.50;0.10;;;25.90;34.80;;;;;;5033106;28;20087;-63
2021/05/18 12:48:11;;;;;;;1.75;0.10;;;25.90;34.80;;;;;;5029870;28;20049;-63
2021/05/18 12:50:49;;;;;;;1.75;0.05;;;25.90;34.10;;;;;;5027515;28;20049;-61
2021/05/18 12:53:29;;;;;;;2.17;0.13;;;25.90;33.60;;;;;;5032681;28;20111;-62
2021/05/18 12:55:58;;;;;;;0.65;0.40;;;25.90;33.70;;;;;;5028797;28;20399;-61
2021/05/18 12:58:31;;;;;;;0.45;0.00;;;25.80;33.50;;;;;;5027400;28;20045;-64
2021/05/18 13:01:11;;;;;;;1.10;0.10;;;25.90;33.60;;;;;;5027701;28;20103;-64
2021/05/18 13:03:41;;;;;;;2.85;0.40;;;25.90;34.00;;;;;;5025172;28;20424;-62
2021/05/18 13:06:09;;;;;;;0.40;0.13;;;25.90;34.20;;;;;;5029518;28;20514;-63
2021/05/18 13:08:38;;;;;;;0.63;0.08;;;25.90;34.20;;;;;;5026382;28;20068;-64
2021/05/18 13:12:11;;;;;;;0.35;0.00;;;25.90;34.30;;;;;;5024802;28;20743;-62
2021/05/18 13:13:59;;;;;;;3.65;0.40;;;26.00;34.40;;;;;;5021655;28;20230;-62
2021/05/18 13:16:35;;;;;;;0.40;0.10;;;26.00;34.50;;;;;;5025175;28;20064;-62
2021/05/18 13:19:09;;;;;;;2.47;0.00;;;26.00;34.30;;;;;;5026612;28;20398;-61
2021/05/18 13:21:44;;;;;;;7.65;0.35;;;26.00;34.30;;;;;;5023612;28;20136;-60
2021/05/18 13:26:25;;;;;;;0.65;0.00;;;26.10;34.50;;;;;;5026601;28;20053;-62
2021/05/18 13:27:00;;;;;;;0.77;0.50;;;26.10;34.50;;;;;;5031058;28;20044;-63
2021/05/18 13:29:28;;;;;;;4.25;0.20;;;26.00;34.30;;;;;;5029631;28;20071;-62
2021/05/18 13:31:56;;;;;;;2.63;0.10;;;26.00;34.10;;;;;;5027248;28;20045;-62
2021/05/18 13:34:40;;;;;;;3.35;0.50;;;26.00;34.30;;;;;;5026822;28;20053;-61
2021/05/18 13:37:07;;;;;;;5.88;0.52;;;26.00;34.50;;;;;;5027082;28;20068;-62
2021/05/18 13:39:35;;;;;;;2.90;0.30;;;26.00;34.40;;;;;;5025412;28;20052;-60
2021/05/18 13:42:02;;;;;;;2.10;0.10;;;26.00;34.60;;;;;;5025214;28;20049;-60
2021/05/18 13:44:30;;;;;;;3.63;0.32;;;26.00;34.60;;;;;;5033285;28;20049;-61
2021/05/18 13:46:58;;;;;;;5.82;0.30;;;25.90;34.60;;;;;;5027716;28;20053;-56
2021/05/18 13:49:26;;;;;;;1.98;0.10;;;26.00;34.60;;;;;;5028896;28;20168;-60
2021/05/18 13:51:53;;;;;;;1.95;0.10;;;25.90;34.50;;;;;;5026372;28;20421;-61
2021/05/18 13:54:38;;;;;;;1.05;0.10;;;25.90;34.40;;;;;;5025716;28;20054;-62
2021/05/18 13:57:06;;;;;;;;;;;25.90;34.60;;;;;;5028630;28;20571;-62
2021/05/18 13:59:34;;;;;;;3.53;0.10;;;25.90;34.50;;;;;;5026853;28;19964;-63
2021/05/18 14:02:01;;;;;;;2.88;0.20;;;25.90;34.50;;;;;;5026606;28;20064;-62
2021/05/18 14:04:29;;;;;;;3.10;0.10;;;25.90;34.60;;;;;;5029725;28;20132;-62
2021/05/18 14:08:21;;;;;;;5.22;0.17;;;25.90;34.70;;;;;;5035442;28;20076;-62
2021/05/18 14:10:16;;;;;;;;;;;25.90;34.70;;;;;;5029096;28;20060;-61
2021/05/18 14:12:43;;;;;;;4.50;0.10;;;25.90;34.60;;;;;;5032400;28;20404;-62
2021/05/18 14:15:11;;;;;;;0.45;0.30;;;25.90;34.60;;;;;;5032527;28;20059;-66
2021/05/18 14:17:39;;;;;;;0.35;0.00;;;25.90;34.70;;;;;;5031278;28;20163;-62
2021/05/18 14:20:07;;;;;;;3.67;0.10;;;25.90;34.70;;;;;;5033958;28;20143;-66
2021/05/18 14:22:35;;;;;;;3.55;0.35;;;26.00;34.70;;;;;;5031098;28;20046;-64
2021/05/18 14:25:06;;;;;;;4.35;0.40;;;26.00;34.80;;;;;;5032015;28;20136;-62
2021/05/18 14:27:35;;;;;;;3.83;0.35;;;26.00;35.00;;;;;;5030162;28;20513;-63
2021/05/18 14:30:04;;;;;;;2.40;0.00;;;26.00;35.10;;;;;;5031923;28;20410;-65
2021/05/18 14:32:32;;;;;;;11.25;0.30;;;26.00;35.00;;;;;;5032504;28;20068;-63
2021/05/18 14:34:59;;;;;;;0.35;0.00;;;26.00;34.90;;;;;;5035271;28;20052;-63
2021/05/18 14:37:26;;;;;;;2.63;0.68;;;26.10;34.90;;;;;;5032615;28;20083;-63
2021/05/18 14:40:09;;;;;;;0.63;0.08;;;26.10;34.90;;;;;;5031242;28;20096;-63
2021/05/18 14:45:33;;;;;;;3.70;0.22;;;26.10;35.00;;;;;;5032357;28;20057;-64
2021/05/18 14:53:53;;;;;;;3.33;0.10;;;26.00;35.20;;;;;;5029410;28;20048;-62
2021/05/18 14:56:20;;;;;;;4.85;0.20;;;26.00;35.10;;;;;;5034106;28;20691;-62
2021/05/18 14:58:48;;;;;;;3.53;0.10;;;26.00;35.10;;;;;;5034012;28;20095;-62
2021/05/18 15:01:15;;;;;;;8.82;4.43;;;26.00;35.10;;;;;;5035051;28;20053;-63
2021/05/18 15:03:42;;;;;;;9.98;6.18;;;26.00;34.90;;;;;;5034656;28;20490;-62
2021/05/18 15:06:10;;;;;;;13.23;7.07;;;26.00;34.90;;;;;;5028333;28;20144;-62
2021/05/18 15:08:37;;;;;;;37.42;23.15;;;26.00;34.90;;;;;;5038813;28;20052;-62
2021/05/18 15:11:05;;;;;;;74.45;45.25;;;26.10;35.00;;;;;;5033305;28;20057;-60
2021/05/18 15:13:34;;;;;;;77.10;44.55;;;26.10;35.10;;;;;;5037040;28;20049;-62
2021/05/18 15:16:01;;;;;;;117.93;64.32;;;26.00;35.30;;;;;;5030290;28;20498;-62
2021/05/18 15:18:31;;;;;;;144.90;74.88;;;26.10;35.40;;;;;;5033376;28;20052;-61
2021/05/18 15:20:58;;;;;;;112.53;55.95;;;26.00;35.60;;;;;;5031731;28;20156;-62
2021/05/18 15:23:28;;;;;;;92.72;46.92;;;26.00;35.50;;;;;;5031541;28;20569;-62
2021/05/18 15:25:56;;;;;;;89.63;44.85;;;26.00;35.40;;;;;;5031469;28;20399;-62
2021/05/18 15:28:23;;;;;;;84.60;42.13;;;26.00;35.50;;;;;;5031536;28;20055;-61
2021/05/18 15:30:51;;;;;;;90.68;43.38;;;26.00;35.50;;;;;;5033832;28;20152;-62
2021/05/18 15:33:18;;;;;;;89.05;42.42;;;26.00;35.50;;;;;;5030014;28;20462;-60
2021/05/18 15:35:45;;;;;;;67.22;31.98;;;26.00;35.80;;;;;;5029355;28;20118;-62
2021/05/18 15:38:12;;;;;;;75.07;31.58;;;26.00;36.70;;;;;;5033054;28;20081;-63
2021/05/18 15:40:40;;;;;;;75.47;29.55;;;26.00;37.10;;;;;;5030605;28;20056;-62
2021/05/18 15:43:07;;;;;;;66.78;27.50;;;26.00;37.80;;;;;;5030344;28;20445;-65
2021/05/18 15:45:34;;;;;;;50.20;23.17;;;26.00;37.10;;;;;;5032547;28;20049;-64
2021/05/18 15:48:04;;;;;;;50.10;22.27;;;26.00;36.90;;;;;;5030128;28;20049;-65
2021/05/18 15:50:31;;;;;;;41.58;17.90;;;25.90;37.10;;;;;;5026992;28;20551;-62
2021/05/18 15:52:58;;;;;;;35.67;16.40;;;25.90;38.70;;;;;;5032338;28;20137;-62
2021/05/18 15:55:26;;;;;;;31.45;14.60;;;25.80;38.20;;;;;;5032639;28;20053;-61
2021/05/18 15:57:53;;;;;;;30.27;13.30;;;25.70;38.30;;;;;;5027701;28;20085;-62
2021/05/18 16:00:21;;;;;;;30.35;12.38;;;25.50;39.40;;;;;;5022912;28;20103;-61
2021/05/18 16:02:48;;;;;;;25.65;10.98;;;25.40;39.50;;;;;;5024696;28;20130;-61
2021/05/18 16:05:15;;;;;;;17.42;8.80;;;25.20;39.80;;;;;;5041224;28;20080;-61
2021/05/18 16:07:44;;;;;;;14.88;7.15;;;25.10;40.30;;;;;;5038059;28;20045;-60
2021/05/18 16:10:11;;;;;;;15.50;7.18;;;25.10;40.10;;;;;;5037503;28;20045;-63
2021/05/18 16:12:39;;;;;;;18.00;5.95;;;25.10;39.40;;;;;;5060114;28;20080;-63
2021/05/18 16:15:07;;;;;;;16.02;5.82;;;25.20;38.70;;;;;;5043418;28;20521;-60
2021/05/18 16:17:34;;;;;;;15.68;5.35;;;25.30;38.30;;;;;;5042146;28;20073;-60
2021/05/18 16:20:01;;;;;;;16.15;5.95;;;25.40;37.80;;;;;;5042272;28;20053;-60
2021/05/18 16:22:28;;;;;;;13.07;5.25;;;25.60;37.50;;;;;;5039880;28;20060;-60
2021/05/18 16:24:56;;;;;;;12.88;5.72;;;25.70;37.20;;;;;;5031850;28;20057;-59
2021/05/18 16:27:24;;;;;;;14.57;6.07;;;25.80;36.90;;;;;;5039324;28;20060;-60
2021/05/18 16:29:52;;;;;;;17.05;7.60;;;25.90;36.80;;;;;;5035375;28;20146;-62
2021/05/18 16:32:20;;;;;;;16.40;6.70;;;26.00;36.80;;;;;;5034022;28;20169;-60
2021/05/18 16:34:47;;;;;;;13.23;5.38;;;26.20;37.00;;;;;;5037232;28;20104;-59
2021/05/18 16:37:15;;;;;;;18.80;6.70;;;26.30;36.90;;;;;;5041552;28;20289;-60
2021/05/18 16:39:42;;;;;;;15.98;6.72;;;26.40;36.70;;;;;;5042465;28;20130;-60
2021/05/18 16:42:09;;;;;;;16.08;6.43;;;26.40;37.10;;;;;;5041937;28;20048;-60
2021/05/18 16:44:36;;;;;;;13.95;5.75;;;26.50;36.30;;;;;;5042488;28;20077;-60
2021/05/18 16:47:04;;;;;;;16.50;5.70;;;26.60;36.20;;;;;;5041247;28;20383;-60
2021/05/18 16:49:31;;;;;;;15.45;6.22;;;26.60;36.10;;;;;;5041759;28;20300;-60
2021/05/18 16:51:59;;;;;;;12.10;5.35;;;26.50;36.10;;;;;;5041058;28;20049;-60
2021/05/18 16:54:26;;;;;;;12.02;5.00;;;26.50;36.30;;;;;;5041920;28;20106;-60
2021/05/18 16:56:54;;;;;;;9.43;4.70;;;26.40;36.40;;;;;;5041841;28;20420;-60
2021/05/18 16:59:21;;;;;;;13.50;4.35;;;26.30;36.60;;;;;;5041640;28;20053;-59
2021/05/18 17:01:49;;;;;;;8.48;3.78;;;26.20;36.80;;;;;;5041460;28;20189;-60
2021/05/18 17:04:18;;;;;;;9.05;4.15;;;26.20;37.10;;;;;;5042024;28;20079;-60
2021/05/18 17:06:46;;;;;;;10.80;3.78;;;26.10;37.20;;;;;;5041357;28;20139;-59
2021/05/18 17:09:13;;;;;;;7.57;3.20;;;26.00;37.40;;;;;;5021422;28;20077;-60
2021/05/18 17:11:42;;;;;;;7.72;3.33;;;26.00;37.50;;;;;;5021645;28;20053;-59
2021/05/18 17:14:11;;;;;;;6.20;3.05;;;25.90;37.60;;;;;;5021857;28;20046;-60